sensor_id;sensor_type;location;lat;lon;timestamp;temperature;humidity
3727;DHT22;1879;45.876;12.300;2023-05-10T00:00:24;17.90;90.40
3727;DHT22;1879;45.876;12.300;2023-05-10T00:02:51;17.90;88.80
3727;DHT22;1879;45.876;12.300;2023-05-10T00:05:19;17.90;89.00
3727;DHT22;1879;45.876;12.300;2023-05-10T00:07:46;17.90;89.90
3727;DHT22;1879;45.876;12.300;2023-05-10T00:10:13;17.80;89.70
3727;DHT22;1879;45.876;12.300;2023-05-10T00:12:40;17.80;88.70
3727;DHT22;1879;45.876;12.300;2023-05-10T00:15:08;17.80;90.50
3727;DHT22;1879;45.876;12.300;2023-05-10T00:17:35;17.80;89.70
3727;DHT22;1879;45.876;12.300;2023-05-10T00:20:03;17.80;88.80
3727;DHT22;1879;45.876;12.300;2023-05-10T00:22:32;17.80;88.10
3727;DHT22;1879;45.876;12.300;2023-05-10T00:24:59;17.80;88.70
3727;DHT22;1879;45.876;12.300;2023-05-10T00:27:26;17.70;88.30
3727;DHT22;1879;45.876;12.300;2023-05-10T00:29:53;17.70;88.20
3727;DHT22;1879;45.876;12.300;2023-05-10T00:32:20;17.70;89.30
3727;DHT22;1879;45.876;12.300;2023-05-10T00:34:47;17.70;88.60
3727;DHT22;1879;45.876;12.300;2023-05-10T00:37:14;17.70;87.20
3727;DHT22;1879;45.876;12.300;2023-05-10T00:39:42;17.70;87.80
3727;DHT22;1879;45.876;12.300;2023-05-10T00:42:09;17.70;87.20
3727;DHT22;1879;45.876;12.300;2023-05-10T00:44:36;17.60;86.10
3727;DHT22;1879;45.876;12.300;2023-05-10T00:47:03;17.60;85.30
3727;DHT22;1879;45.876;12.300;2023-05-10T00:49:30;17.60;85.00
3727;DHT22;1879;45.876;12.300;2023-05-10T00:51:57;17.60;84.20
3727;DHT22;1879;45.876;12.300;2023-05-10T00:54:25;17.60;84.90
3727;DHT22;1879;45.876;12.300;2023-05-10T00:56:53;17.60;83.70
3727;DHT22;1879;45.876;12.300;2023-05-10T00:59:22;17.60;83.80
3727;DHT22;1879;45.876;12.300;2023-05-10T01:01:50;17.60;82.00
3727;DHT22;1879;45.876;12.300;2023-05-10T01:04:17;17.60;83.10
3727;DHT22;1879;45.876;12.300;2023-05-10T01:06:45;17.60;82.00
3727;DHT22;1879;45.876;12.300;2023-05-10T01:09:12;17.60;82.20
3727;DHT22;1879;45.876;12.300;2023-05-10T01:11:40;17.60;82.40
3727;DHT22;1879;45.876;12.300;2023-05-10T01:14:08;17.60;82.00
3727;DHT22;1879;45.876;12.300;2023-05-10T01:16:37;17.60;80.50
3727;DHT22;1879;45.876;12.300;2023-05-10T01:19:06;17.60;81.20
3727;DHT22;1879;45.876;12.300;2023-05-10T01:21:43;17.60;80.50
3727;DHT22;1879;45.876;12.300;2023-05-10T01:27:30;17.60;81.60
3727;DHT22;1879;45.876;12.300;2023-05-10T01:30:15;17.50;80.10
3727;DHT22;1879;45.876;12.300;2023-05-10T01:32:53;17.50;81.10
3727;DHT22;1879;45.876;12.300;2023-05-10T01:35:30;17.50;79.80
3727;DHT22;1879;45.876;12.300;2023-05-10T01:38:03;17.50;81.90
3727;DHT22;1879;45.876;12.300;2023-05-10T01:40:36;17.60;81.50
3727;DHT22;1879;45.876;12.300;2023-05-10T01:43:11;17.50;80.00
3727;DHT22;1879;45.876;12.300;2023-05-10T01:45:50;17.50;80.40
3727;DHT22;1879;45.876;12.300;2023-05-10T01:48:24;17.50;81.10
3727;DHT22;1879;45.876;12.300;2023-05-10T01:50:54;17.50;81.70
3727;DHT22;1879;45.876;12.300;2023-05-10T01:53:22;17.50;80.50
3727;DHT22;1879;45.876;12.300;2023-05-10T01:55:52;17.50;87.10
3727;DHT22;1879;45.876;12.300;2023-05-10T01:58:25;17.50;86.60
3727;DHT22;1879;45.876;12.300;2023-05-10T02:00:54;17.50;82.90
3727;DHT22;1879;45.876;12.300;2023-05-10T02:03:24;17.50;82.70
3727;DHT22;1879;45.876;12.300;2023-05-10T02:05:53;17.40;85.20
3727;DHT22;1879;45.876;12.300;2023-05-10T02:08:22;17.40;82.40
3727;DHT22;1879;45.876;12.300;2023-05-10T02:10:51;17.40;83.40
3727;DHT22;1879;45.876;12.300;2023-05-10T02:13:19;17.40;84.50
3727;DHT22;1879;45.876;12.300;2023-05-10T02:15:48;17.40;84.70
3727;DHT22;1879;45.876;12.300;2023-05-10T02:18:17;17.40;83.20
3727;DHT22;1879;45.876;12.300;2023-05-10T02:20:47;17.20;83.50
3727;DHT22;1879;45.876;12.300;2023-05-10T02:23:17;17.20;84.20
3727;DHT22;1879;45.876;12.300;2023-05-10T02:25:45;17.20;85.10
3727;DHT22;1879;45.876;12.300;2023-05-10T02:28:15;17.10;84.80
3727;DHT22;1879;45.876;12.300;2023-05-10T02:30:43;17.10;85.90
3727;DHT22;1879;45.876;12.300;2023-05-10T02:33:11;17.00;86.20
3727;DHT22;1879;45.876;12.300;2023-05-10T02:35:38;17.00;86.10
3727;DHT22;1879;45.876;12.300;2023-05-10T02:38:07;16.90;86.60
3727;DHT22;1879;45.876;12.300;2023-05-10T02:40:36;16.90;88.30
3727;DHT22;1879;45.876;12.300;2023-05-10T02:43:04;16.90;89.40
3727;DHT22;1879;45.876;12.300;2023-05-10T02:45:35;16.90;89.00
3727;DHT22;1879;45.876;12.300;2023-05-10T02:48:04;16.80;87.80
3727;DHT22;1879;45.876;12.300;2023-05-10T02:50:33;16.80;88.40
3727;DHT22;1879;45.876;12.300;2023-05-10T02:53:03;16.90;89.50
3727;DHT22;1879;45.876;12.300;2023-05-10T02:55:37;16.80;88.60
3727;DHT22;1879;45.876;12.300;2023-05-10T02:58:05;16.80;88.50
3727;DHT22;1879;45.876;12.300;2023-05-10T03:00:32;16.80;88.30
3727;DHT22;1879;45.876;12.300;2023-05-10T03:03:01;16.80;88.40
3727;DHT22;1879;45.876;12.300;2023-05-10T03:05:28;16.80;87.90
3727;DHT22;1879;45.876;12.300;2023-05-10T03:07:55;16.80;88.10
3727;DHT22;1879;45.876;12.300;2023-05-10T03:10:27;16.80;88.10
3727;DHT22;1879;45.876;12.300;2023-05-10T03:13:11;16.80;88.00
3727;DHT22;1879;45.876;12.300;2023-05-10T03:15:47;16.80;88.90
3727;DHT22;1879;45.876;12.300;2023-05-10T03:18:21;16.80;88.00
3727;DHT22;1879;45.876;12.300;2023-05-10T03:20:50;16.80;87.90
3727;DHT22;1879;45.876;12.300;2023-05-10T03:23:22;16.80;87.60
3727;DHT22;1879;45.876;12.300;2023-05-10T03:25:55;16.80;87.40
3727;DHT22;1879;45.876;12.300;2023-05-10T03:28:25;16.80;88.60
3727;DHT22;1879;45.876;12.300;2023-05-10T03:30:53;16.80;87.30
3727;DHT22;1879;45.876;12.300;2023-05-10T03:33:20;16.90;88.30
3727;DHT22;1879;45.876;12.300;2023-05-10T03:35:47;16.80;87.70
3727;DHT22;1879;45.876;12.300;2023-05-10T03:38:14;16.80;87.60
3727;DHT22;1879;45.876;12.300;2023-05-10T03:40:42;16.90;88.70
3727;DHT22;1879;45.876;12.300;2023-05-10T03:43:09;16.90;88.80
3727;DHT22;1879;45.876;12.300;2023-05-10T03:45:37;16.90;89.40
3727;DHT22;1879;45.876;12.300;2023-05-10T03:48:05;16.80;89.80
3727;DHT22;1879;45.876;12.300;2023-05-10T03:50:32;16.70;90.40
3727;DHT22;1879;45.876;12.300;2023-05-10T03:52:59;16.70;90.60
3727;DHT22;1879;45.876;12.300;2023-05-10T03:55:26;16.70;91.20
3727;DHT22;1879;45.876;12.300;2023-05-10T03:57:53;16.60;91.40
3727;DHT22;1879;45.876;12.300;2023-05-10T04:00:20;16.50;91.80
3727;DHT22;1879;45.876;12.300;2023-05-10T04:02:49;16.50;92.50
3727;DHT22;1879;45.876;12.300;2023-05-10T04:05:16;16.40;92.90
3727;DHT22;1879;45.876;12.300;2023-05-10T04:07:43;16.30;93.30
3727;DHT22;1879;45.876;12.300;2023-05-10T04:10:10;16.20;94.50
3727;DHT22;1879;45.876;12.300;2023-05-10T04:12:38;16.10;96.00
3727;DHT22;1879;45.876;12.300;2023-05-10T04:15:06;16.20;97.30
3727;DHT22;1879;45.876;12.300;2023-05-10T04:17:33;16.20;97.90
3727;DHT22;1879;45.876;12.300;2023-05-10T04:20:01;16.20;98.20
3727;DHT22;1879;45.876;12.300;2023-05-10T04:22:29;16.20;98.20
3727;DHT22;1879;45.876;12.300;2023-05-10T04:24:56;16.10;98.80
3727;DHT22;1879;45.876;12.300;2023-05-10T04:27:23;16.10;99.90
3727;DHT22;1879;45.876;12.300;2023-05-10T04:29:50;16.10;99.60
3727;DHT22;1879;45.876;12.300;2023-05-10T04:32:17;16.10;99.90
3727;DHT22;1879;45.876;12.300;2023-05-10T04:34:44;16.10;99.90
3727;DHT22;1879;45.876;12.300;2023-05-10T04:37:12;16.10;99.90
3727;DHT22;1879;45.876;12.300;2023-05-10T04:39:39;16.00;99.90
3727;DHT22;1879;45.876;12.300;2023-05-10T04:42:06;15.90;99.90
3727;DHT22;1879;45.876;12.300;2023-05-10T04:44:33;15.90;99.90
3727;DHT22;1879;45.876;12.300;2023-05-10T04:47:01;15.80;99.90
3727;DHT22;1879;45.876;12.300;2023-05-10T04:49:28;15.80;99.90
3727;DHT22;1879;45.876;12.300;2023-05-10T04:51:55;15.80;99.90
3727;DHT22;1879;45.876;12.300;2023-05-10T04:54:24;15.80;99.90
3727;DHT22;1879;45.876;12.300;2023-05-10T04:56:51;15.80;99.90
3727;DHT22;1879;45.876;12.300;2023-05-10T04:59:18;15.70;99.90
3727;DHT22;1879;45.876;12.300;2023-05-10T05:01:45;15.60;99.90
3727;DHT22;1879;45.876;12.300;2023-05-10T05:04:12;15.50;99.90
3727;DHT22;1879;45.876;12.300;2023-05-10T05:06:40;15.50;99.90
3727;DHT22;1879;45.876;12.300;2023-05-10T05:09:07;15.50;99.90
3727;DHT22;1879;45.876;12.300;2023-05-10T05:11:37;15.50;99.90
3727;DHT22;1879;45.876;12.300;2023-05-10T05:14:04;15.60;99.90
3727;DHT22;1879;45.876;12.300;2023-05-10T05:16:31;15.70;99.90
3727;DHT22;1879;45.876;12.300;2023-05-10T05:18:58;15.70;99.90
3727;DHT22;1879;45.876;12.300;2023-05-10T05:21:26;15.80;99.90
3727;DHT22;1879;45.876;12.300;2023-05-10T05:23:54;15.80;99.90
3727;DHT22;1879;45.876;12.300;2023-05-10T05:26:21;15.90;99.90
3727;DHT22;1879;45.876;12.300;2023-05-10T05:28:49;15.90;99.90
3727;DHT22;1879;45.876;12.300;2023-05-10T05:31:19;15.90;99.90
3727;DHT22;1879;45.876;12.300;2023-05-10T05:33:46;15.90;99.90
3727;DHT22;1879;45.876;12.300;2023-05-10T05:36:13;16.00;99.90
3727;DHT22;1879;45.876;12.300;2023-05-10T05:38:40;16.00;99.90
3727;DHT22;1879;45.876;12.300;2023-05-10T05:41:07;16.10;99.90
3727;DHT22;1879;45.876;12.300;2023-05-10T05:43:47;16.00;99.90
3727;DHT22;1879;45.876;12.300;2023-05-10T05:46:40;16.00;99.90
3727;DHT22;1879;45.876;12.300;2023-05-10T05:49:07;16.00;99.90
3727;DHT22;1879;45.876;12.300;2023-05-10T05:51:38;16.00;99.90
3727;DHT22;1879;45.876;12.300;2023-05-10T05:54:16;16.00;99.90
3727;DHT22;1879;45.876;12.300;2023-05-10T05:56:50;15.90;99.90
3727;DHT22;1879;45.876;12.300;2023-05-10T05:59:21;15.90;99.90
3727;DHT22;1879;45.876;12.300;2023-05-10T06:01:51;15.80;99.90
3727;DHT22;1879;45.876;12.300;2023-05-10T06:04:20;15.80;99.90
3727;DHT22;1879;45.876;12.300;2023-05-10T06:06:48;15.80;99.90
3727;DHT22;1879;45.876;12.300;2023-05-10T06:09:21;15.80;99.90
3727;DHT22;1879;45.876;12.300;2023-05-10T06:11:55;15.80;99.90
3727;DHT22;1879;45.876;12.300;2023-05-10T06:14:22;15.80;99.90
3727;DHT22;1879;45.876;12.300;2023-05-10T06:16:51;15.90;99.90
3727;DHT22;1879;45.876;12.300;2023-05-10T06:19:18;16.00;99.90
3727;DHT22;1879;45.876;12.300;2023-05-10T06:21:45;16.00;99.90
3727;DHT22;1879;45.876;12.300;2023-05-10T06:24:15;16.00;99.90
3727;DHT22;1879;45.876;12.300;2023-05-10T06:26:42;16.00;99.90
3727;DHT22;1879;45.876;12.300;2023-05-10T06:29:09;16.10;99.90
3727;DHT22;1879;45.876;12.300;2023-05-10T06:31:37;16.10;99.90
3727;DHT22;1879;45.876;12.300;2023-05-10T06:34:05;16.10;99.90
3727;DHT22;1879;45.876;12.300;2023-05-10T06:36:38;16.10;99.90
3727;DHT22;1879;45.876;12.300;2023-05-10T06:39:05;16.10;99.90
3727;DHT22;1879;45.876;12.300;2023-05-10T06:41:32;16.00;99.90
3727;DHT22;1879;45.876;12.300;2023-05-10T06:44:00;16.10;99.90
3727;DHT22;1879;45.876;12.300;2023-05-10T06:46:27;16.20;99.90
3727;DHT22;1879;45.876;12.300;2023-05-10T06:48:55;16.20;99.90
3727;DHT22;1879;45.876;12.300;2023-05-10T06:51:24;16.20;99.90
3727;DHT22;1879;45.876;12.300;2023-05-10T06:53:51;16.20;99.90
3727;DHT22;1879;45.876;12.300;2023-05-10T06:56:18;16.20;99.90
3727;DHT22;1879;45.876;12.300;2023-05-10T06:58:47;16.20;99.90
3727;DHT22;1879;45.876;12.300;2023-05-10T07:01:38;16.20;99.90
3727;DHT22;1879;45.876;12.300;2023-05-10T07:04:36;16.40;99.90
3727;DHT22;1879;45.876;12.300;2023-05-10T07:07:23;16.30;99.90
3727;DHT22;1879;45.876;12.300;2023-05-10T07:09:50;16.30;99.90
3727;DHT22;1879;45.876;12.300;2023-05-10T07:12:17;16.40;99.90
3727;DHT22;1879;45.876;12.300;2023-05-10T07:14:45;16.40;99.90
3727;DHT22;1879;45.876;12.300;2023-05-10T07:17:18;16.40;99.90
3727;DHT22;1879;45.876;12.300;2023-05-10T07:19:45;16.40;99.90
3727;DHT22;1879;45.876;12.300;2023-05-10T07:25:20;16.40;99.90
3727;DHT22;1879;45.876;12.300;2023-05-10T07:31:03;16.40;99.90
3727;DHT22;1879;45.876;12.300;2023-05-10T07:33:30;16.50;99.90
3727;DHT22;1879;45.876;12.300;2023-05-10T07:35:57;16.30;99.90
3727;DHT22;1879;45.876;12.300;2023-05-10T07:38:24;16.20;99.90
3727;DHT22;1879;45.876;12.300;2023-05-10T07:40:55;16.20;99.90
3727;DHT22;1879;45.876;12.300;2023-05-10T07:43:22;16.30;99.90
3727;DHT22;1879;45.876;12.300;2023-05-10T07:45:49;16.30;99.90
3727;DHT22;1879;45.876;12.300;2023-05-10T07:48:17;16.50;99.90
3727;DHT22;1879;45.876;12.300;2023-05-10T07:50:44;16.60;99.90
3727;DHT22;1879;45.876;12.300;2023-05-10T07:53:11;16.60;99.90
3727;DHT22;1879;45.876;12.300;2023-05-10T07:55:38;16.60;99.90
3727;DHT22;1879;45.876;12.300;2023-05-10T07:58:07;16.70;99.90
3727;DHT22;1879;45.876;12.300;2023-05-10T08:00:34;16.60;99.90
3727;DHT22;1879;45.876;12.300;2023-05-10T08:03:01;16.70;99.90
3727;DHT22;1879;45.876;12.300;2023-05-10T08:05:28;16.70;99.90
3727;DHT22;1879;45.876;12.300;2023-05-10T08:07:55;16.70;99.90
3727;DHT22;1879;45.876;12.300;2023-05-10T08:10:32;16.80;99.90
3727;DHT22;1879;45.876;12.300;2023-05-10T08:12:59;16.80;99.90
3727;DHT22;1879;45.876;12.300;2023-05-10T08:15:28;16.80;99.90
3727;DHT22;1879;45.876;12.300;2023-05-10T08:17:54;16.90;99.90
3727;DHT22;1879;45.876;12.300;2023-05-10T08:20:22;16.80;99.90
3727;DHT22;1879;45.876;12.300;2023-05-10T08:22:49;16.70;99.90
3727;DHT22;1879;45.876;12.300;2023-05-10T08:25:16;16.70;99.90
3727;DHT22;1879;45.876;12.300;2023-05-10T08:27:43;16.80;99.90
3727;DHT22;1879;45.876;12.300;2023-05-10T08:30:10;16.70;99.90
3727;DHT22;1879;45.876;12.300;2023-05-10T08:32:39;16.70;99.90
3727;DHT22;1879;45.876;12.300;2023-05-10T08:35:07;16.80;99.90
3727;DHT22;1879;45.876;12.300;2023-05-10T08:37:34;16.90;99.90
3727;DHT22;1879;45.876;12.300;2023-05-10T08:40:01;16.90;99.90
3727;DHT22;1879;45.876;12.300;2023-05-10T08:42:30;16.80;99.90
3727;DHT22;1879;45.876;12.300;2023-05-10T08:45:02;16.80;99.90
3727;DHT22;1879;45.876;12.300;2023-05-10T08:47:30;16.90;99.90
3727;DHT22;1879;45.876;12.300;2023-05-10T08:49:59;16.90;99.90
3727;DHT22;1879;45.876;12.300;2023-05-10T08:52:27;16.90;99.90
3727;DHT22;1879;45.876;12.300;2023-05-10T08:54:55;17.00;99.90
3727;DHT22;1879;45.876;12.300;2023-05-10T08:57:23;16.80;99.90
3727;DHT22;1879;45.876;12.300;2023-05-10T08:59:50;16.80;99.90
3727;DHT22;1879;45.876;12.300;2023-05-10T09:02:18;16.80;99.90
3727;DHT22;1879;45.876;12.300;2023-05-10T09:04:46;16.80;99.90
3727;DHT22;1879;45.876;12.300;2023-05-10T09:07:16;16.80;99.90
3727;DHT22;1879;45.876;12.300;2023-05-10T09:09:44;16.70;99.90
3727;DHT22;1879;45.876;12.300;2023-05-10T09:12:13;16.70;99.90
3727;DHT22;1879;45.876;12.300;2023-05-10T09:14:42;16.70;99.90
3727;DHT22;1879;45.876;12.300;2023-05-10T09:17:11;16.60;99.90
3727;DHT22;1879;45.876;12.300;2023-05-10T09:19:38;16.60;99.90
3727;DHT22;1879;45.876;12.300;2023-05-10T09:22:05;16.50;99.90
3727;DHT22;1879;45.876;12.300;2023-05-10T09:24:34;16.50;99.90
3727;DHT22;1879;45.876;12.300;2023-05-10T09:27:02;16.50;99.90
3727;DHT22;1879;45.876;12.300;2023-05-10T09:29:39;16.50;99.90
3727;DHT22;1879;45.876;12.300;2023-05-10T09:32:06;16.50;99.90
3727;DHT22;1879;45.876;12.300;2023-05-10T09:34:33;16.60;99.90
3727;DHT22;1879;45.876;12.300;2023-05-10T09:37:02;16.60;99.90
3727;DHT22;1879;45.876;12.300;2023-05-10T09:39:38;16.60;99.90
3727;DHT22;1879;45.876;12.300;2023-05-10T09:42:07;16.60;99.90
3727;DHT22;1879;45.876;12.300;2023-05-10T09:44:35;16.50;99.90
3727;DHT22;1879;45.876;12.300;2023-05-10T09:47:03;16.40;99.90
3727;DHT22;1879;45.876;12.300;2023-05-10T09:49:31;16.40;99.90
3727;DHT22;1879;45.876;12.300;2023-05-10T09:52:03;16.30;99.90
3727;DHT22;1879;45.876;12.300;2023-05-10T09:54:30;16.30;99.90
3727;DHT22;1879;45.876;12.300;2023-05-10T09:56:59;16.30;99.90
3727;DHT22;1879;45.876;12.300;2023-05-10T09:59:27;16.40;99.90
3727;DHT22;1879;45.876;12.300;2023-05-10T10:01:57;16.30;99.90
3727;DHT22;1879;45.876;12.300;2023-05-10T10:04:24;16.30;99.90
3727;DHT22;1879;45.876;12.300;2023-05-10T10:07:02;16.30;99.90
3727;DHT22;1879;45.876;12.300;2023-05-10T10:09:29;16.40;99.90
3727;DHT22;1879;45.876;12.300;2023-05-10T10:11:56;16.30;99.90
3727;DHT22;1879;45.876;12.300;2023-05-10T10:14:26;16.20;99.90
3727;DHT22;1879;45.876;12.300;2023-05-10T10:16:53;16.20;99.90
3727;DHT22;1879;45.876;12.300;2023-05-10T10:19:20;16.20;99.90
3727;DHT22;1879;45.876;12.300;2023-05-10T10:21:48;16.10;99.90
3727;DHT22;1879;45.876;12.300;2023-05-10T10:24:16;16.20;99.90
3727;DHT22;1879;45.876;12.300;2023-05-10T10:26:43;16.30;99.90
3727;DHT22;1879;45.876;12.300;2023-05-10T10:29:26;16.30;99.90
3727;DHT22;1879;45.876;12.300;2023-05-10T10:32:10;16.20;99.90
3727;DHT22;1879;45.876;12.300;2023-05-10T10:34:41;16.10;99.90
3727;DHT22;1879;45.876;12.300;2023-05-10T10:37:10;16.10;99.90
3727;DHT22;1879;45.876;12.300;2023-05-10T10:39:37;16.10;99.90
3727;DHT22;1879;45.876;12.300;2023-05-10T10:42:05;16.10;99.90
3727;DHT22;1879;45.876;12.300;2023-05-10T10:44:39;16.10;99.90
3727;DHT22;1879;45.876;12.300;2023-05-10T10:47:29;16.00;99.90
3727;DHT22;1879;45.876;12.300;2023-05-10T10:50:04;16.10;99.90
3727;DHT22;1879;45.876;12.300;2023-05-10T10:52:32;16.00;99.90
3727;DHT22;1879;45.876;12.300;2023-05-10T10:55:02;16.00;99.90
3727;DHT22;1879;45.876;12.300;2023-05-10T10:57:32;16.00;99.90
3727;DHT22;1879;45.876;12.300;2023-05-10T11:00:21;16.00;99.90
3727;DHT22;1879;45.876;12.300;2023-05-10T11:02:59;16.10;99.90
3727;DHT22;1879;45.876;12.300;2023-05-10T11:05:38;16.10;99.90
3727;DHT22;1879;45.876;12.300;2023-05-10T11:08:20;16.20;99.90
3727;DHT22;1879;45.876;12.300;2023-05-10T11:11:02;16.20;99.90
3727;DHT22;1879;45.876;12.300;2023-05-10T11:13:34;16.20;99.90
3727;DHT22;1879;45.876;12.300;2023-05-10T11:16:14;16.10;99.90
3727;DHT22;1879;45.876;12.300;2023-05-10T11:18:52;16.10;99.90
3727;DHT22;1879;45.876;12.300;2023-05-10T11:21:22;15.90;99.90
3727;DHT22;1879;45.876;12.300;2023-05-10T11:23:50;15.90;99.90
3727;DHT22;1879;45.876;12.300;2023-05-10T11:26:18;15.90;99.90
3727;DHT22;1879;45.876;12.300;2023-05-10T11:28:49;15.90;99.90
3727;DHT22;1879;45.876;12.300;2023-05-10T11:31:21;16.00;99.90
3727;DHT22;1879;45.876;12.300;2023-05-10T11:33:54;15.90;99.90
3727;DHT22;1879;45.876;12.300;2023-05-10T11:36:23;15.90;99.90
3727;DHT22;1879;45.876;12.300;2023-05-10T11:38:51;15.80;99.90
3727;DHT22;1879;45.876;12.300;2023-05-10T11:41:19;15.70;99.90
3727;DHT22;1879;45.876;12.300;2023-05-10T11:43:54;15.80;99.90
3727;DHT22;1879;45.876;12.300;2023-05-10T11:46:24;15.80;99.90
3727;DHT22;1879;45.876;12.300;2023-05-10T11:48:59;15.90;99.90
3727;DHT22;1879;45.876;12.300;2023-05-10T11:51:32;15.90;99.90
3727;DHT22;1879;45.876;12.300;2023-05-10T11:53:59;15.90;99.90
3727;DHT22;1879;45.876;12.300;2023-05-10T11:56:26;15.80;99.90
3727;DHT22;1879;45.876;12.300;2023-05-10T11:58:55;15.70;99.90
3727;DHT22;1879;45.876;12.300;2023-05-10T12:01:24;15.80;99.90
3727;DHT22;1879;45.876;12.300;2023-05-10T12:03:53;15.90;99.90
3727;DHT22;1879;45.876;12.300;2023-05-10T12:06:20;16.00;99.90
3727;DHT22;1879;45.876;12.300;2023-05-10T12:08:48;15.90;99.90
3727;DHT22;1879;45.876;12.300;2023-05-10T12:11:18;16.00;99.90
3727;DHT22;1879;45.876;12.300;2023-05-10T12:13:46;16.00;99.90
3727;DHT22;1879;45.876;12.300;2023-05-10T12:16:16;16.00;99.90
3727;DHT22;1879;45.876;12.300;2023-05-10T12:18:45;16.00;99.90
3727;DHT22;1879;45.876;12.300;2023-05-10T12:21:12;16.20;99.90
3727;DHT22;1879;45.876;12.300;2023-05-10T12:23:39;16.30;99.90
3727;DHT22;1879;45.876;12.300;2023-05-10T12:26:06;16.40;99.90
3727;DHT22;1879;45.876;12.300;2023-05-10T12:28:36;16.40;99.90
3727;DHT22;1879;45.876;12.300;2023-05-10T12:31:04;16.50;99.90
3727;DHT22;1879;45.876;12.300;2023-05-10T12:33:36;16.40;99.90
3727;DHT22;1879;45.876;12.300;2023-05-10T12:36:06;16.40;99.90
3727;DHT22;1879;45.876;12.300;2023-05-10T12:38:34;16.40;99.90
3727;DHT22;1879;45.876;12.300;2023-05-10T12:41:06;16.60;99.90
3727;DHT22;1879;45.876;12.300;2023-05-10T12:43:33;16.60;99.90
3727;DHT22;1879;45.876;12.300;2023-05-10T12:46:05;16.60;99.90
3727;DHT22;1879;45.876;12.300;2023-05-10T12:48:32;16.60;99.90
3727;DHT22;1879;45.876;12.300;2023-05-10T12:51:00;16.60;99.90
3727;DHT22;1879;45.876;12.300;2023-05-10T12:53:29;16.50;99.90
3727;DHT22;1879;45.876;12.300;2023-05-10T12:55:56;16.30;99.90
3727;DHT22;1879;45.876;12.300;2023-05-10T12:58:23;16.30;99.90
3727;DHT22;1879;45.876;12.300;2023-05-10T13:00:50;16.30;99.90
3727;DHT22;1879;45.876;12.300;2023-05-10T13:03:18;16.20;99.90
3727;DHT22;1879;45.876;12.300;2023-05-10T13:05:45;16.20;99.90
3727;DHT22;1879;45.876;12.300;2023-05-10T13:08:12;16.20;99.90
3727;DHT22;1879;45.876;12.300;2023-05-10T13:10:41;16.20;99.90
3727;DHT22;1879;45.876;12.300;2023-05-10T13:13:10;16.20;99.90
3727;DHT22;1879;45.876;12.300;2023-05-10T13:15:37;16.20;99.90
3727;DHT22;1879;45.876;12.300;2023-05-10T13:18:04;16.10;99.90
3727;DHT22;1879;45.876;12.300;2023-05-10T13:20:31;16.10;99.90
3727;DHT22;1879;45.876;12.300;2023-05-10T13:22:58;16.10;99.90
3727;DHT22;1879;45.876;12.300;2023-05-10T13:25:26;16.10;99.90
3727;DHT22;1879;45.876;12.300;2023-05-10T13:27:55;16.20;99.90
3727;DHT22;1879;45.876;12.300;2023-05-10T13:30:22;16.20;99.90
3727;DHT22;1879;45.876;12.300;2023-05-10T13:32:49;16.20;99.90
3727;DHT22;1879;45.876;12.300;2023-05-10T13:35:16;16.20;99.90
3727;DHT22;1879;45.876;12.300;2023-05-10T13:37:43;16.20;99.90
3727;DHT22;1879;45.876;12.300;2023-05-10T13:40:10;16.20;99.90
3727;DHT22;1879;45.876;12.300;2023-05-10T13:42:37;16.20;99.90
3727;DHT22;1879;45.876;12.300;2023-05-10T13:45:07;16.20;99.90
3727;DHT22;1879;45.876;12.300;2023-05-10T13:47:35;16.10;99.90
3727;DHT22;1879;45.876;12.300;2023-05-10T13:50:02;16.10;99.90
3727;DHT22;1879;45.876;12.300;2023-05-10T13:52:29;16.00;99.90
3727;DHT22;1879;45.876;12.300;2023-05-10T13:54:56;15.90;99.90
3727;DHT22;1879;45.876;12.300;2023-05-10T13:57:23;15.90;99.90
3727;DHT22;1879;45.876;12.300;2023-05-10T13:59:50;15.80;99.90
3727;DHT22;1879;45.876;12.300;2023-05-10T14:02:19;15.90;99.90
3727;DHT22;1879;45.876;12.300;2023-05-10T14:04:46;15.90;99.90
3727;DHT22;1879;45.876;12.300;2023-05-10T14:07:13;15.80;99.90
3727;DHT22;1879;45.876;12.300;2023-05-10T14:09:42;15.80;99.90
3727;DHT22;1879;45.876;12.300;2023-05-10T14:12:09;16.00;99.90
3727;DHT22;1879;45.876;12.300;2023-05-10T14:14:37;16.00;99.90
3727;DHT22;1879;45.876;12.300;2023-05-10T14:17:04;15.80;99.90
3727;DHT22;1879;45.876;12.300;2023-05-10T14:19:35;15.90;99.90
3727;DHT22;1879;45.876;12.300;2023-05-10T14:22:02;15.80;99.90
3727;DHT22;1879;45.876;12.300;2023-05-10T14:24:29;15.90;99.90
3727;DHT22;1879;45.876;12.300;2023-05-10T14:26:56;15.80;99.90
3727;DHT22;1879;45.876;12.300;2023-05-10T14:29:24;15.80;99.90
3727;DHT22;1879;45.876;12.300;2023-05-10T14:34:38;15.80;99.90
3727;DHT22;1879;45.876;12.300;2023-05-10T14:37:05;15.80;99.90
3727;DHT22;1879;45.876;12.300;2023-05-10T14:39:32;15.80;99.90
3727;DHT22;1879;45.876;12.300;2023-05-10T14:41:59;15.80;99.90
3727;DHT22;1879;45.876;12.300;2023-05-10T14:44:28;15.70;99.90
3727;DHT22;1879;45.876;12.300;2023-05-10T14:46:55;15.70;99.90
3727;DHT22;1879;45.876;12.300;2023-05-10T14:49:22;15.80;99.90
3727;DHT22;1879;45.876;12.300;2023-05-10T14:51:52;15.70;99.90
3727;DHT22;1879;45.876;12.300;2023-05-10T14:54:21;15.70;99.90
3727;DHT22;1879;45.876;12.300;2023-05-10T14:56:48;15.60;99.90
3727;DHT22;1879;45.876;12.300;2023-05-10T14:59:15;15.60;99.90
3727;DHT22;1879;45.876;12.300;2023-05-10T15:01:42;15.60;99.90
3727;DHT22;1879;45.876;12.300;2023-05-10T15:04:09;15.60;99.90
3727;DHT22;1879;45.876;12.300;2023-05-10T15:06:38;15.60;99.90
3727;DHT22;1879;45.876;12.300;2023-05-10T15:09:09;15.50;99.90
3727;DHT22;1879;45.876;12.300;2023-05-10T15:11:36;15.50;99.90
3727;DHT22;1879;45.876;12.300;2023-05-10T15:14:03;15.40;99.90
3727;DHT22;1879;45.876;12.300;2023-05-10T15:16:30;15.50;99.90
3727;DHT22;1879;45.876;12.300;2023-05-10T15:18:57;15.50;99.90
3727;DHT22;1879;45.876;12.300;2023-05-10T15:21:24;15.50;99.90
3727;DHT22;1879;45.876;12.300;2023-05-10T15:23:51;15.50;99.90
3727;DHT22;1879;45.876;12.300;2023-05-10T15:26:19;15.40;99.90
3727;DHT22;1879;45.876;12.300;2023-05-10T15:28:47;15.40;99.90
3727;DHT22;1879;45.876;12.300;2023-05-10T15:31:14;15.30;99.90
3727;DHT22;1879;45.876;12.300;2023-05-10T15:33:41;15.40;99.90
3727;DHT22;1879;45.876;12.300;2023-05-10T15:36:08;15.40;99.90
3727;DHT22;1879;45.876;12.300;2023-05-10T15:38:35;15.50;99.90
3727;DHT22;1879;45.876;12.300;2023-05-10T15:41:02;15.60;99.90
3727;DHT22;1879;45.876;12.300;2023-05-10T15:43:31;15.50;99.90
3727;DHT22;1879;45.876;12.300;2023-05-10T15:45:58;15.40;99.90
3727;DHT22;1879;45.876;12.300;2023-05-10T15:48:25;15.50;99.90
3727;DHT22;1879;45.876;12.300;2023-05-10T15:50:52;15.50;99.90
3727;DHT22;1879;45.876;12.300;2023-05-10T15:53:19;15.50;99.90
3727;DHT22;1879;45.876;12.300;2023-05-10T15:55:46;15.50;99.90
3727;DHT22;1879;45.876;12.300;2023-05-10T15:58:13;15.40;99.90
3727;DHT22;1879;45.876;12.300;2023-05-10T16:00:42;15.40;99.90
3727;DHT22;1879;45.876;12.300;2023-05-10T16:03:09;15.30;99.90
3727;DHT22;1879;45.876;12.300;2023-05-10T16:05:36;15.30;99.90
3727;DHT22;1879;45.876;12.300;2023-05-10T16:08:03;15.30;99.90